This is the latest recevied weather packets stored in our database for station/object IW1RID-3. If no packets are shown the sender has not sent any weather packets the latest 10 day(s).
| Time | Temp. | Humidity | Pressure | Rain* | Wind** | Luminosity | Snow |
|---|---|---|---|---|---|---|---|
| 1777550509 | 23.33° C | 41% | 1077 hPa | - | - | - | - |
| 1777549306 | 22.78° C | 42% | 1077.2 hPa | - | - | - | - |
| 1777548099 | 23.89° C | 41% | 1077.2 hPa | - | - | - | - |
| 1777546893 | 23.33° C | 43% | 1077.1 hPa | - | - | - | - |
| 1777545689 | 21.67° C | 48% | 1077.1 hPa | - | - | - | - |
| 1777544485 | 21.11° C | 51% | 1077.3 hPa | - | - | - | - |
| 1777543277 | 21.67° C | 50% | 1077.3 hPa | - | - | - | - |
| 1777542073 | 21.11° C | 52% | 1077.3 hPa | - | - | - | - |
| 1777540868 | 21.67° C | 52% | 1077.2 hPa | - | - | - | - |
| 1777539663 | 21.67° C | 52% | 1077.1 hPa | - | - | - | - |
| 1777538456 | 21.67° C | 51% | 1076.9 hPa | - | - | - | - |
| 1777537252 | 21.11° C | 54% | 1076.7 hPa | - | - | - | - |
| 1777536047 | 19.44° C | 56% | 1076.8 hPa | - | - | - | - |
| 1777534841 | 18.89° C | 56% | 1076.7 hPa | - | - | - | - |
| 1777533636 | 17.78° C | 58% | 1076.7 hPa | - | - | - | - |
| 1777532433 | 16.67° C | 60% | 1076.7 hPa | - | - | - | - |
| 1777531227 | 16.67° C | 62% | 1076.5 hPa | - | - | - | - |
| 1777530021 | 15.56° C | 64% | 1076.4 hPa | - | - | - | - |
| 1777528816 | 15° C | 65% | 1076.3 hPa | - | - | - | - |
| 1777527611 | 15° C | 64% | 1075.9 hPa | - | - | - | - |
| 1777526405 | 14.44° C | 67% | 1075.7 hPa | - | - | - | - |
| 1777525199 | 14.44° C | 67% | 1075.6 hPa | - | - | - | - |
| 1777523993 | 14.44° C | 67% | 1075.4 hPa | - | - | - | - |
| 1777522787 | 15° C | 65% | 1075.2 hPa | - | - | - | - |
| 1777521581 | 14.44° C | 67% | 1075.3 hPa | - | - | - | - |
* Rain since midnight (hover to see other rain measurements)
** Current wind speed in m/s (hover to see current wind gust speed)